createdAt,value
2019-02-27T00:00:19.795Z,4.61
2019-02-27T00:01:19.804Z,4.55
2019-02-27T00:02:22.738Z,4.57
2019-02-27T00:03:19.777Z,4.59
2019-02-27T00:04:20.050Z,4.58
2019-02-27T00:05:19.791Z,4.50
2019-02-27T00:06:19.752Z,4.47
2019-02-27T00:07:21.061Z,4.55
2019-02-27T00:08:19.770Z,4.40
2019-02-27T00:09:19.695Z,4.39
2019-02-27T00:10:19.716Z,4.44
2019-02-27T00:11:19.876Z,4.34
2019-02-27T00:12:20.033Z,4.36
2019-02-27T00:13:19.684Z,4.36
2019-02-27T00:14:19.647Z,4.43
2019-02-27T00:15:19.652Z,4.33
2019-02-27T00:16:19.629Z,4.40
2019-02-27T00:17:20.180Z,4.36
2019-02-27T00:18:23.720Z,4.37
2019-02-27T00:19:19.602Z,4.42
2019-02-27T00:20:19.579Z,4.46
2019-02-27T00:21:19.582Z,4.40
2019-02-27T00:22:19.591Z,4.37
2019-02-27T00:23:23.918Z,4.46
2019-02-27T00:24:19.875Z,4.42
2019-02-27T00:25:19.543Z,4.42
2019-02-27T00:26:19.540Z,4.36
2019-02-27T00:27:19.523Z,4.28
2019-02-27T00:28:23.181Z,4.29
2019-02-27T00:29:19.584Z,4.25
2019-02-27T00:30:19.497Z,4.16
2019-02-27T00:31:19.495Z,4.15
2019-02-27T00:32:19.449Z,4.19
2019-02-27T00:33:19.447Z,4.12
2019-02-27T00:34:19.438Z,4.12
2019-02-27T00:35:19.482Z,4.14
2019-02-27T00:36:19.434Z,4.07
2019-02-27T00:37:19.739Z,4.00
2019-02-27T00:38:19.400Z,4.04
2019-02-27T00:39:19.392Z,3.96
2019-02-27T00:40:19.397Z,3.96
2019-02-27T00:41:19.407Z,3.86
2019-02-27T00:42:20.675Z,3.90
2019-02-27T00:43:19.376Z,3.82
2019-02-27T00:44:19.742Z,3.86
2019-02-27T00:45:19.333Z,4.00
2019-02-27T00:46:19.305Z,3.89
2019-02-27T00:47:20.105Z,3.80
2019-02-27T00:48:19.281Z,3.86
2019-02-27T00:49:19.293Z,3.98
2019-02-27T00:50:19.275Z,3.98
2019-02-27T00:51:19.265Z,4.07
2019-02-27T00:52:19.268Z,4.12
2019-02-27T00:53:19.278Z,4.08
2019-02-27T00:54:19.297Z,4.21
2019-02-27T00:55:19.219Z,4.19
2019-02-27T00:56:19.218Z,4.16
2019-02-27T00:57:20.852Z,4.19
2019-02-27T00:58:19.198Z,4.25
2019-02-27T00:59:19.219Z,4.15
2019-02-27T01:00:19.167Z,4.26
2019-02-27T01:01:19.154Z,4.32
2019-02-27T01:02:20.289Z,4.33
2019-02-27T01:03:19.149Z,4.26
2019-02-27T01:04:19.890Z,4.32
2019-02-27T01:05:19.220Z,4.24
2019-02-27T01:06:19.109Z,4.22
2019-02-27T01:07:20.676Z,4.25
2019-02-27T01:08:19.936Z,4.21
2019-02-27T01:09:19.374Z,4.19
2019-02-27T01:10:19.069Z,4.22
2019-02-27T01:11:19.090Z,4.19
2019-02-27T01:12:19.044Z,4.16
2019-02-27T01:13:19.034Z,4.18
2019-02-27T01:14:19.018Z,4.15
2019-02-27T01:15:19.035Z,4.18
2019-02-27T01:16:19.030Z,4.15
2019-02-27T01:17:23.434Z,4.15
2019-02-27T01:18:18.977Z,4.16
2019-02-27T01:19:18.986Z,4.21
2019-02-27T01:20:18.955Z,4.21
2019-02-27T01:21:20.025Z,4.18
2019-02-27T01:22:18.948Z,4.24
2019-02-27T01:23:19.051Z,4.16
2019-02-27T01:24:18.902Z,4.12
2019-02-27T01:25:22.872Z,4.15
2019-02-27T01:26:18.901Z,4.07
2019-02-27T01:27:18.919Z,4.03
2019-02-27T01:28:19.190Z,4.07
2019-02-27T01:29:18.910Z,4.04
2019-02-27T01:30:18.863Z,4.03
2019-02-27T01:31:18.864Z,3.96
2019-02-27T01:32:18.842Z,3.98
2019-02-27T01:33:19.138Z,3.89
2019-02-27T01:34:18.831Z,3.83
2019-02-27T01:35:19.146Z,3.82
2019-02-27T01:36:18.796Z,3.86
2019-02-27T01:37:18.784Z,3.86
2019-02-27T01:38:18.759Z,3.90
2019-02-27T01:39:18.767Z,3.89
2019-02-27T01:40:18.751Z,3.85
2019-02-27T01:41:18.841Z,3.82
2019-02-27T01:42:19.033Z,3.79
2019-02-27T01:43:18.737Z,3.76
2019-02-27T01:44:18.704Z,3.79
2019-02-27T01:45:21.102Z,3.70
2019-02-27T01:46:18.711Z,3.64
2019-02-27T01:47:18.750Z,3.70
2019-02-27T01:48:18.679Z,3.75
2019-02-27T01:49:18.982Z,3.62
2019-02-27T01:50:19.952Z,3.64
2019-02-27T01:51:18.625Z,3.70
2019-02-27T01:52:18.621Z,3.67
2019-02-27T01:53:18.645Z,3.64
2019-02-27T01:54:18.596Z,3.57
2019-02-27T01:55:21.814Z,3.54
2019-02-27T01:56:18.859Z,3.57
2019-02-27T01:57:18.585Z,3.53
2019-02-27T01:58:18.558Z,3.58
2019-02-27T01:59:18.622Z,3.49
2019-02-27T02:00:22.982Z,3.54
2019-02-27T02:01:18.521Z,3.60
2019-02-27T02:02:18.511Z,3.53
2019-02-27T02:03:18.504Z,3.57
2019-02-27T02:04:20.274Z,3.61
2019-02-27T02:05:18.556Z,3.58
2019-02-27T02:06:18.493Z,3.49
2019-02-27T02:07:19.400Z,3.47
2019-02-27T02:08:18.453Z,3.60
2019-02-27T02:09:21.022Z,3.46
2019-02-27T02:10:18.438Z,3.58
2019-02-27T02:11:18.458Z,3.53
2019-02-27T02:12:18.487Z,3.60
2019-02-27T02:13:18.396Z,3.53
2019-02-27T02:14:20.982Z,3.62
2019-02-27T02:15:19.771Z,3.58
2019-02-27T02:16:18.352Z,3.58
2019-02-27T02:17:18.425Z,3.46
2019-02-27T02:18:18.431Z,3.53
2019-02-27T02:19:18.970Z,3.54
2019-02-27T02:20:18.320Z,3.46
2019-02-27T02:21:18.338Z,3.61
2019-02-27T02:22:18.298Z,3.49
2019-02-27T02:23:18.340Z,3.53
2019-02-27T02:24:20.956Z,3.49
2019-02-27T02:25:18.261Z,3.52
2019-02-27T02:26:18.255Z,3.57
2019-02-27T02:27:18.575Z,3.64
2019-02-27T02:28:18.245Z,3.57
2019-02-27T02:29:20.351Z,3.57
2019-02-27T02:30:18.207Z,3.58
2019-02-27T02:31:18.203Z,3.60
2019-02-27T02:32:18.296Z,3.47
2019-02-27T02:33:18.182Z,3.54
2019-02-27T02:34:18.190Z,3.57
2019-02-27T02:35:18.239Z,3.53
2019-02-27T02:36:18.145Z,3.58
2019-02-27T02:37:18.171Z,3.61
2019-02-27T02:38:18.136Z,3.61
2019-02-27T02:39:19.372Z,3.61
2019-02-27T02:40:18.108Z,3.61
2019-02-27T02:41:18.126Z,3.68
2019-02-27T02:42:18.159Z,3.71
2019-02-27T02:43:18.081Z,3.72
2019-02-27T02:44:21.206Z,3.76
2019-02-27T02:45:18.052Z,3.72
2019-02-27T02:46:18.376Z,3.70
2019-02-27T02:47:21.071Z,3.71
2019-02-27T02:48:18.014Z,3.88
2019-02-27T02:49:19.838Z,3.76
2019-02-27T02:50:18.511Z,3.71
2019-02-27T02:51:18.012Z,3.76
2019-02-27T02:52:18.005Z,3.80
2019-02-27T02:53:18.254Z,3.85
2019-02-27T02:54:17.961Z,3.88
2019-02-27T02:55:18.012Z,3.89
2019-02-27T02:56:23.765Z,3.96
2019-02-27T02:57:18.938Z,3.96
2019-02-27T02:58:17.953Z,4.01
2019-02-27T02:59:24.328Z,3.94
2019-02-27T03:01:32.799Z,3.96
2019-02-27T03:02:32.751Z,3.86
2019-02-27T03:03:35.981Z,3.89
2019-02-27T03:04:32.873Z,3.88
2019-02-27T03:05:33.026Z,3.85
2019-02-27T03:06:35.008Z,3.97
2019-02-27T03:07:32.705Z,3.94
2019-02-27T03:08:32.698Z,3.92
2019-02-27T03:09:32.705Z,3.97
2019-02-27T03:10:33.116Z,3.90
2019-02-27T03:11:32.700Z,3.97
2019-02-27T03:12:32.644Z,3.98
2019-02-27T03:13:32.643Z,4.03
2019-02-27T03:14:32.626Z,4.07
2019-02-27T03:15:32.612Z,4.10
2019-02-27T03:16:32.946Z,4.15
2019-02-27T03:17:32.595Z,4.08
2019-02-27T03:18:32.604Z,4.15
2019-02-27T03:19:32.594Z,4.10
2019-02-27T03:20:32.571Z,4.14
2019-02-27T03:21:32.557Z,4.19
2019-02-27T03:22:32.606Z,4.18
2019-02-27T03:23:32.869Z,4.22
2019-02-27T03:24:32.554Z,4.18
2019-02-27T03:25:32.511Z,4.26
2019-02-27T03:26:32.506Z,4.19
2019-02-27T03:27:32.488Z,4.16
2019-02-27T03:28:33.185Z,4.14
2019-02-27T03:29:32.467Z,4.06
2019-02-27T03:30:36.183Z,4.04
2019-02-27T03:31:32.447Z,4.01
2019-02-27T03:32:41.277Z,3.89
2019-02-27T03:33:33.477Z,3.97
2019-02-27T03:34:32.467Z,3.98
2019-02-27T03:35:32.406Z,3.94
2019-02-27T03:36:36.069Z,4.03
2019-02-27T03:37:33.403Z,4.03
2019-02-27T03:38:32.380Z,4.04
2019-02-27T03:39:35.032Z,4.06
2019-02-27T03:40:32.427Z,4.16
2019-02-27T03:41:32.352Z,4.10
2019-02-27T03:42:34.169Z,4.16
2019-02-27T03:43:32.615Z,4.10
2019-02-27T03:44:32.318Z,4.10
2019-02-27T03:45:32.325Z,4.10
2019-02-27T03:46:32.365Z,4.04
2019-02-27T03:47:32.281Z,4.15
2019-02-27T03:48:32.269Z,4.06
2019-02-27T03:49:32.261Z,4.07
2019-02-27T03:50:32.248Z,4.06
2019-02-27T03:51:32.255Z,4.01
2019-02-27T03:52:36.103Z,4.04
2019-02-27T03:53:32.220Z,4.01
2019-02-27T03:54:32.209Z,4.04
2019-02-27T03:55:33.164Z,4.00
2019-02-27T03:56:32.189Z,3.90
2019-02-27T03:57:32.178Z,4.01
2019-02-27T03:58:32.212Z,3.94
2019-02-27T03:59:32.174Z,3.92
2019-02-27T04:00:32.145Z,4.00
2019-02-27T04:01:32.142Z,3.92
2019-02-27T04:02:32.130Z,3.97
2019-02-27T04:03:32.128Z,3.94
2019-02-27T04:04:32.191Z,3.94
2019-02-27T04:05:32.862Z,3.97
2019-02-27T04:06:32.088Z,4.08
2019-02-27T04:07:32.778Z,4.00
2019-02-27T04:08:32.846Z,3.98
2019-02-27T04:09:32.076Z,4.00
2019-02-27T04:10:32.309Z,3.98
2019-02-27T04:11:32.030Z,4.04
2019-02-27T04:12:32.031Z,3.98
2019-02-27T04:13:32.011Z,3.97
2019-02-27T04:14:32.299Z,3.90
2019-02-27T04:15:31.992Z,3.96
2019-02-27T04:16:32.131Z,3.82
2019-02-27T04:17:31.967Z,3.80
2019-02-27T04:18:31.958Z,3.71
2019-02-27T04:19:31.948Z,3.76
2019-02-27T04:20:31.947Z,3.78
2019-02-27T04:21:31.940Z,3.65
2019-02-27T04:22:36.604Z,3.70
2019-02-27T04:23:32.902Z,3.68
2019-02-27T04:24:31.897Z,3.68
2019-02-27T04:25:32.289Z,3.72
2019-02-27T04:26:31.870Z,3.71
2019-02-27T04:27:32.175Z,3.72
2019-02-27T04:28:31.904Z,3.75
2019-02-27T04:29:31.853Z,3.78
2019-02-27T04:30:31.841Z,3.76
2019-02-27T04:31:31.819Z,3.64
2019-02-27T04:32:31.810Z,3.61
2019-02-27T04:33:31.804Z,3.60
2019-02-27T04:34:33.288Z,3.58
2019-02-27T04:35:31.784Z,3.57
2019-02-27T04:36:31.812Z,3.58
2019-02-27T04:37:31.754Z,3.60
2019-02-27T04:38:31.742Z,3.60
2019-02-27T04:39:31.743Z,3.62
2019-02-27T04:40:32.029Z,3.62
2019-02-27T04:41:31.729Z,3.57
2019-02-27T04:42:31.716Z,3.62
2019-02-27T04:43:32.182Z,3.67
2019-02-27T04:44:31.676Z,3.57
2019-02-27T04:45:31.689Z,3.65
2019-02-27T04:46:32.852Z,3.67
2019-02-27T04:47:31.686Z,3.68
2019-02-27T04:48:31.639Z,3.62
2019-02-27T04:49:31.650Z,3.60
2019-02-27T04:50:31.620Z,3.62
2019-02-27T04:51:31.620Z,3.70
2019-02-27T04:52:31.649Z,3.76
2019-02-27T04:53:32.499Z,3.78
2019-02-27T04:54:31.613Z,3.76
2019-02-27T04:55:31.574Z,3.80
2019-02-27T04:56:31.576Z,3.85
2019-02-27T04:57:33.771Z,3.86
2019-02-27T04:58:33.815Z,3.83
2019-02-27T04:59:31.522Z,3.80
2019-02-27T05:00:31.520Z,3.86
2019-02-27T05:01:36.079Z,3.98
2019-02-27T05:02:32.555Z,3.96
2019-02-27T05:03:31.483Z,3.89
2019-02-27T05:04:34.926Z,4.03
2019-02-27T05:05:31.747Z,4.01
2019-02-27T05:06:31.461Z,3.98
2019-02-27T05:07:31.453Z,3.98
2019-02-27T05:08:31.438Z,4.04
2019-02-27T05:09:34.156Z,4.06
2019-02-27T05:10:31.490Z,4.08
2019-02-27T05:11:31.413Z,4.21
2019-02-27T05:12:31.400Z,4.18
2019-02-27T05:13:31.385Z,4.22
2019-02-27T05:14:31.376Z,4.32
2019-02-27T05:15:31.371Z,4.24
2019-02-27T05:16:31.728Z,4.25
2019-02-27T05:17:31.349Z,4.24
2019-02-27T05:18:31.338Z,4.32
2019-02-27T05:19:31.317Z,4.28
2019-02-27T05:20:31.349Z,4.34
2019-02-27T05:21:31.311Z,4.39
2019-02-27T05:22:31.343Z,4.47
2019-02-27T05:23:33.542Z,4.44
2019-02-27T05:24:31.265Z,4.50
2019-02-27T05:25:31.260Z,4.43
2019-02-27T05:26:31.242Z,4.47
2019-02-27T05:27:31.264Z,4.51
2019-02-27T05:28:32.128Z,4.46
2019-02-27T05:29:31.211Z,4.51
2019-02-27T05:30:31.254Z,4.43
2019-02-27T05:31:31.192Z,4.44
2019-02-27T05:32:31.198Z,4.37
2019-02-27T05:33:35.825Z,4.42
2019-02-27T05:34:31.277Z,4.44
2019-02-27T05:35:31.149Z,4.47
2019-02-27T05:36:31.626Z,4.37
2019-02-27T05:37:31.830Z,4.40
2019-02-27T05:38:31.836Z,4.37
2019-02-27T05:39:31.126Z,4.34
2019-02-27T05:40:31.147Z,4.33
2019-02-27T05:41:33.156Z,4.26
2019-02-27T05:42:31.381Z,4.21
2019-02-27T05:43:31.071Z,4.10
2019-02-27T05:44:31.055Z,4.10
2019-02-27T05:45:31.340Z,4.12
2019-02-27T05:46:31.084Z,4.00
2019-02-27T05:47:31.020Z,4.03
2019-02-27T05:48:31.018Z,4.00
2019-02-27T05:49:31.111Z,3.88
2019-02-27T05:50:33.939Z,3.96
2019-02-27T05:51:30.983Z,3.97
2019-02-27T05:52:31.024Z,4.01
2019-02-27T05:53:30.960Z,4.01
2019-02-27T05:54:32.273Z,4.04
2019-02-27T05:55:30.955Z,3.90
2019-02-27T05:56:30.955Z,3.94
2019-02-27T05:57:31.477Z,3.97
2019-02-27T05:58:30.961Z,4.03
2019-02-27T05:59:31.282Z,4.01
2019-02-27T06:00:30.912Z,4.07
2019-02-27T06:01:30.880Z,4.04
2019-02-27T06:02:30.870Z,4.07
2019-02-27T06:03:30.870Z,4.03
2019-02-27T06:04:31.072Z,4.08
2019-02-27T06:05:30.855Z,4.12
2019-02-27T06:06:31.109Z,4.14
2019-02-27T06:07:30.846Z,4.21
2019-02-27T06:08:34.869Z,4.25
2019-02-27T06:09:31.880Z,4.18
2019-02-27T06:10:30.785Z,4.16
2019-02-27T06:11:33.057Z,4.21
2019-02-27T06:12:30.767Z,4.21
2019-02-27T06:13:31.053Z,4.18
2019-02-27T06:14:30.762Z,4.18
2019-02-27T06:15:30.776Z,4.10
2019-02-27T06:16:30.770Z,4.14
2019-02-27T06:17:30.713Z,4.15
2019-02-27T06:18:30.696Z,4.07
2019-02-27T06:19:33.750Z,4.04
2019-02-27T06:20:30.690Z,3.96
2019-02-27T06:21:30.755Z,3.86
2019-02-27T06:22:31.093Z,3.83
2019-02-27T06:23:30.643Z,3.86
2019-02-27T06:24:30.672Z,3.85
2019-02-27T06:25:30.654Z,3.76
2019-02-27T06:26:32.470Z,3.83
2019-02-27T06:27:31.679Z,3.90
2019-02-27T06:28:30.630Z,3.86
2019-02-27T06:29:30.599Z,3.85
2019-02-27T06:30:31.342Z,3.79
2019-02-27T06:31:30.577Z,3.75
2019-02-27T06:32:30.552Z,3.78
2019-02-27T06:33:30.616Z,3.72
2019-02-27T06:34:30.534Z,3.78
2019-02-27T06:35:33.487Z,3.72
2019-02-27T06:36:30.507Z,3.86
2019-02-27T06:37:30.515Z,3.85
2019-02-27T06:38:30.516Z,3.80
2019-02-27T06:39:34.146Z,3.80
2019-02-27T06:40:30.649Z,3.78
2019-02-27T06:41:30.474Z,3.78
2019-02-27T06:42:30.521Z,3.79
2019-02-27T06:43:30.446Z,3.78
2019-02-27T06:44:30.421Z,3.79
2019-02-27T06:45:30.824Z,3.78
2019-02-27T06:46:30.398Z,3.72
2019-02-27T06:47:33.016Z,3.71
2019-02-27T06:48:31.417Z,3.58
2019-02-27T06:49:30.394Z,3.68
2019-02-27T06:50:31.313Z,3.75
2019-02-27T06:51:30.390Z,3.70
2019-02-27T06:52:30.385Z,3.68
2019-02-27T06:53:30.333Z,3.64
2019-02-27T06:54:30.317Z,3.64
2019-02-27T06:55:30.305Z,3.62
2019-02-27T06:56:30.321Z,3.68
2019-02-27T06:57:30.835Z,3.75
2019-02-27T06:58:30.277Z,3.75
2019-02-27T06:59:30.284Z,3.75
2019-02-27T07:00:35.877Z,3.85
2019-02-27T07:01:31.323Z,3.79
2019-02-27T07:02:30.826Z,3.82
2019-02-27T07:03:32.810Z,3.98
2019-02-27T07:04:36.462Z,3.89
2019-02-27T07:05:30.211Z,4.00
2019-02-27T07:06:30.192Z,4.03
2019-02-27T07:07:31.282Z,4.03
2019-02-27T07:08:30.179Z,3.98
2019-02-27T07:09:30.196Z,4.03
2019-02-27T07:10:30.152Z,4.07
2019-02-27T07:11:30.809Z,4.12
2019-02-27T07:12:30.136Z,4.12
2019-02-27T07:13:30.138Z,4.14
2019-02-27T07:14:30.810Z,4.16
2019-02-27T07:15:30.130Z,4.07
2019-02-27T07:16:31.155Z,4.22
2019-02-27T07:17:31.813Z,4.18
2019-02-27T07:18:31.239Z,4.21
2019-02-27T07:19:30.091Z,4.24
2019-02-27T07:20:30.805Z,4.28
2019-02-27T07:21:32.813Z,4.28
2019-02-27T07:22:30.038Z,4.29
2019-02-27T07:23:30.350Z,4.28
2019-02-27T07:24:30.541Z,4.34
2019-02-27T07:25:29.994Z,4.40
2019-02-27T07:26:29.984Z,4.40
2019-02-27T07:27:31.272Z,4.43
2019-02-27T07:28:29.965Z,4.32
2019-02-27T07:29:29.952Z,4.51
2019-02-27T07:30:30.404Z,4.46
2019-02-27T07:31:29.935Z,4.52
2019-02-27T07:32:31.568Z,4.58
2019-02-27T07:33:29.968Z,4.59
2019-02-27T07:34:30.758Z,4.61
2019-02-27T07:35:29.897Z,4.59
2019-02-27T07:36:29.879Z,4.62
2019-02-27T07:37:29.871Z,4.73
2019-02-27T07:38:30.164Z,4.75
2019-02-27T07:39:32.603Z,4.86
2019-02-27T07:40:29.859Z,4.92
2019-02-27T07:41:29.843Z,4.96
2019-02-27T07:42:32.180Z,4.98
2019-02-27T07:43:29.842Z,5.12
2019-02-27T07:44:34.701Z,5.12
2019-02-27T07:45:30.928Z,5.17
2019-02-27T07:46:29.802Z,5.34
2019-02-27T07:47:29.854Z,6.00
2019-02-27T07:48:30.017Z,7.42
2019-02-27T07:49:31.013Z,8.94
2019-02-27T07:50:29.734Z,10.22
2019-02-27T07:51:29.776Z,11.29
2019-02-27T07:52:32.499Z,11.83
2019-02-27T07:53:30.423Z,12.39
2019-02-27T07:54:30.033Z,13.30
2019-02-27T07:55:30.981Z,13.49
2019-02-27T07:56:29.738Z,14.01
2019-02-27T07:57:30.689Z,14.44
2019-02-27T07:58:33.804Z,14.80
2019-02-27T07:59:29.724Z,14.90
2019-02-27T08:00:29.664Z,15.35
2019-02-27T08:01:29.618Z,15.81
2019-02-27T08:02:29.611Z,15.61
2019-02-27T08:03:29.748Z,15.43
2019-02-27T08:04:29.607Z,15.72
2019-02-27T08:05:29.689Z,15.28
2019-02-27T08:06:29.573Z,15.59
2019-02-27T08:07:29.957Z,15.41
2019-02-27T08:08:29.568Z,15.19
2019-02-27T08:09:30.230Z,15.24
2019-02-27T08:10:29.534Z,14.99
2019-02-27T08:11:29.521Z,14.74
2019-02-27T08:12:29.529Z,15.05
2019-02-27T08:13:30.249Z,15.24
2019-02-27T08:14:29.771Z,14.75
2019-02-27T08:15:29.571Z,13.41
2019-02-27T08:16:29.463Z,11.78
2019-02-27T08:17:29.452Z,10.66
2019-02-27T08:18:30.562Z,9.88
2019-02-27T08:19:29.443Z,9.32
2019-02-27T08:20:29.447Z,8.93
2019-02-27T08:21:30.030Z,8.65
2019-02-27T08:22:29.398Z,8.57
2019-02-27T08:23:29.418Z,8.40
2019-02-27T08:24:29.382Z,8.33
2019-02-27T08:25:29.427Z,8.25
2019-02-27T08:26:29.355Z,8.18
2019-02-27T08:27:29.415Z,8.11
2019-02-27T08:28:30.705Z,8.12
2019-02-27T08:29:29.356Z,8.04
2019-02-27T08:30:29.480Z,8.04
2019-02-27T08:31:29.333Z,8.10
2019-02-27T08:32:32.008Z,7.93
2019-02-27T08:33:30.728Z,8.02
2019-02-27T08:34:29.290Z,7.97
2019-02-27T08:35:29.634Z,7.96
2019-02-27T08:36:29.391Z,7.92
2019-02-27T08:37:29.244Z,7.90
2019-02-27T08:38:29.240Z,8.00
2019-02-27T08:39:29.294Z,7.93
2019-02-27T08:40:29.225Z,7.97
2019-02-27T08:41:31.473Z,7.97
2019-02-27T08:42:30.668Z,8.02
2019-02-27T08:43:30.540Z,8.03
2019-02-27T08:44:29.168Z,8.15
2019-02-27T08:45:29.363Z,8.20
2019-02-27T08:46:29.164Z,8.32
2019-02-27T08:47:29.242Z,8.42
2019-02-27T08:48:29.449Z,8.51
2019-02-27T08:49:31.857Z,8.53
2019-02-27T08:50:31.753Z,8.45
2019-02-27T08:51:30.256Z,8.53
2019-02-27T08:52:30.752Z,8.57
2019-02-27T08:53:29.084Z,8.54
2019-02-27T08:54:32.295Z,8.60
2019-02-27T08:55:29.059Z,8.68
2019-02-27T08:56:30.102Z,8.71
2019-02-27T08:57:29.322Z,8.69
2019-02-27T08:58:29.319Z,8.81
2019-02-27T08:59:29.034Z,8.81
2019-02-27T09:00:29.796Z,8.88
2019-02-27T09:01:28.992Z,8.96
2019-02-27T09:02:30.761Z,8.93
2019-02-27T09:03:29.442Z,8.90
2019-02-27T09:04:28.993Z,8.93
2019-02-27T09:05:29.038Z,8.97
2019-02-27T09:06:28.978Z,9.04
2019-02-27T09:07:29.832Z,9.13
2019-02-27T09:08:31.417Z,9.10
2019-02-27T09:09:30.751Z,9.12
2019-02-27T09:10:30.681Z,9.18
2019-02-27T09:11:28.899Z,9.20
2019-02-27T09:12:28.879Z,9.23
2019-02-27T09:13:28.863Z,9.20
2019-02-27T09:14:28.866Z,9.25
2019-02-27T09:15:29.212Z,9.35
2019-02-27T09:16:29.758Z,9.34
2019-02-27T09:17:29.807Z,9.46
2019-02-27T09:18:28.822Z,9.46
2019-02-27T09:19:29.764Z,9.45
2019-02-27T09:20:28.830Z,9.53
2019-02-27T09:21:29.747Z,9.58
2019-02-27T09:22:30.166Z,9.75
2019-02-27T09:23:28.770Z,9.79
2019-02-27T09:24:28.750Z,9.83
2019-02-27T09:25:28.746Z,9.81
2019-02-27T09:26:28.833Z,9.88
2019-02-27T09:27:29.153Z,9.88
2019-02-27T09:28:28.723Z,9.88
2019-02-27T09:29:29.152Z,10.00
2019-02-27T09:30:30.001Z,10.01
2019-02-27T09:31:28.694Z,10.09
2019-02-27T09:32:28.780Z,10.22
2019-02-27T09:33:38.211Z,10.32
2019-02-27T09:34:29.662Z,10.26
2019-02-27T09:35:32.245Z,10.37
2019-02-27T09:36:29.625Z,10.46
2019-02-27T09:37:28.617Z,10.46
2019-02-27T09:38:28.610Z,10.59
2019-02-27T09:39:31.164Z,10.77
2019-02-27T09:40:29.648Z,10.83
2019-02-27T09:41:28.611Z,10.80
2019-02-27T09:42:28.736Z,10.92
2019-02-27T09:43:28.553Z,10.92
2019-02-27T09:44:28.643Z,10.94
2019-02-27T09:45:31.294Z,11.13
2019-02-27T09:46:28.975Z,11.10
2019-02-27T09:47:28.517Z,11.17
2019-02-27T09:48:31.116Z,11.21
2019-02-27T09:49:28.486Z,11.36
2019-02-27T09:50:28.650Z,11.36
2019-02-27T09:51:29.788Z,11.24
2019-02-27T09:52:30.179Z,11.35
2019-02-27T09:53:28.919Z,11.41
2019-02-27T09:54:28.481Z,11.34
2019-02-27T09:55:28.469Z,11.21
2019-02-27T09:56:29.128Z,11.29
2019-02-27T09:57:28.718Z,11.35
2019-02-27T09:58:28.575Z,11.32
2019-02-27T09:59:28.570Z,11.39
2019-02-27T10:00:28.934Z,11.39
2019-02-27T10:01:29.247Z,11.43
2019-02-27T10:02:28.346Z,11.57
2019-02-27T10:03:28.575Z,11.70
2019-02-27T10:04:29.066Z,11.65
2019-02-27T10:05:28.332Z,11.83
2019-02-27T10:06:28.303Z,11.82
2019-02-27T10:07:28.309Z,11.75
2019-02-27T10:08:28.293Z,11.71
2019-02-27T10:09:29.871Z,11.67
2019-02-27T10:10:28.273Z,11.64
2019-02-27T10:11:28.250Z,11.74
2019-02-27T10:12:28.884Z,11.82
2019-02-27T10:13:28.234Z,11.82
2019-02-27T10:14:28.229Z,11.94
2019-02-27T10:15:28.288Z,12.04
2019-02-27T10:16:28.543Z,12.02
2019-02-27T10:17:28.647Z,12.24
2019-02-27T10:18:28.228Z,12.34
2019-02-27T10:19:29.616Z,12.41
2019-02-27T10:20:28.412Z,12.34
2019-02-27T10:21:28.446Z,12.38
2019-02-27T10:22:28.474Z,12.41
2019-02-27T10:23:31.213Z,12.34
2019-02-27T10:24:28.198Z,12.29
2019-02-27T10:25:28.239Z,12.39
2019-02-27T10:26:30.139Z,12.42
2019-02-27T10:27:29.642Z,12.44
2019-02-27T10:28:28.178Z,12.42
2019-02-27T10:29:28.150Z,12.54
2019-02-27T10:30:28.962Z,12.42
2019-02-27T10:31:28.809Z,12.48
2019-02-27T10:32:31.613Z,12.48
2019-02-27T10:33:29.740Z,12.51
2019-02-27T10:34:28.252Z,12.52
2019-02-27T10:35:29.506Z,12.56
2019-02-27T10:36:29.742Z,12.63
2019-02-27T10:37:28.849Z,12.59
2019-02-27T10:38:28.788Z,12.64
2019-02-27T10:39:28.758Z,12.63
2019-02-27T10:40:33.310Z,12.63
2019-02-27T10:41:28.025Z,12.66
2019-02-27T10:42:29.316Z,12.79
2019-02-27T10:43:31.368Z,12.81
2019-02-27T10:44:28.041Z,12.79
2019-02-27T10:45:28.204Z,12.81
2019-02-27T10:46:28.672Z,12.89
2019-02-27T10:47:28.166Z,13.04
2019-02-27T10:48:27.861Z,13.07
2019-02-27T10:49:28.160Z,13.15
2019-02-27T10:50:27.840Z,13.21
2019-02-27T10:51:27.895Z,13.24
2019-02-27T10:52:27.836Z,13.30
2019-02-27T10:53:27.984Z,13.29
2019-02-27T10:54:27.951Z,13.40
2019-02-27T10:55:27.896Z,13.36
2019-02-27T10:56:27.974Z,13.44
2019-02-27T10:57:31.444Z,13.38
2019-02-27T10:58:28.108Z,13.36
2019-02-27T10:59:27.746Z,13.36
2019-02-27T11:00:27.845Z,13.46
2019-02-27T11:01:27.801Z,13.59
2019-02-27T11:02:27.712Z,13.55
2019-02-27T11:03:28.749Z,13.69
2019-02-27T11:04:27.715Z,13.73
2019-02-27T11:05:27.706Z,13.74
2019-02-27T11:06:33.992Z,13.76
2019-02-27T11:07:28.734Z,13.77
2019-02-27T11:08:29.567Z,13.79
2019-02-27T11:09:28.085Z,13.76
2019-02-27T11:10:27.635Z,13.83
2019-02-27T11:11:27.663Z,13.98
2019-02-27T11:12:29.460Z,14.02
2019-02-27T11:13:27.624Z,14.04
2019-02-27T11:14:31.721Z,14.07
2019-02-27T11:15:28.324Z,14.17
2019-02-27T11:16:28.012Z,14.13
2019-02-27T11:17:27.578Z,14.14
2019-02-27T11:18:27.544Z,14.21
2019-02-27T11:19:27.842Z,14.19
2019-02-27T11:20:27.690Z,14.31
2019-02-27T11:21:30.733Z,14.27
2019-02-27T11:22:31.376Z,14.32
2019-02-27T11:23:27.585Z,14.39
2019-02-27T11:24:27.739Z,14.47
2019-02-27T11:25:27.513Z,14.56
2019-02-27T11:26:27.482Z,14.84
2019-02-27T11:27:27.723Z,15.23
2019-02-27T11:28:27.886Z,15.88
2019-02-27T11:29:27.558Z,16.92
2019-02-27T11:30:27.425Z,18.28
2019-02-27T11:31:27.534Z,20.06
2019-02-27T11:32:27.406Z,21.29
2019-02-27T11:33:32.741Z,22.74
2019-02-27T11:34:28.405Z,24.07
2019-02-27T11:35:27.373Z,25.06
2019-02-27T11:36:27.358Z,25.69
2019-02-27T11:37:27.400Z,26.24
2019-02-27T11:38:27.416Z,26.49
2019-02-27T11:39:32.936Z,26.69
2019-02-27T11:40:27.745Z,26.57
2019-02-27T11:41:27.777Z,27.04
2019-02-27T11:42:28.971Z,27.17
2019-02-27T11:43:27.429Z,27.36
2019-02-27T11:44:27.398Z,26.86
2019-02-27T11:45:27.785Z,27.50
2019-02-27T11:46:27.358Z,27.85
2019-02-27T11:47:27.245Z,28.50
2019-02-27T11:48:27.270Z,29.11
2019-02-27T11:49:27.230Z,29.55
2019-02-27T11:50:27.242Z,28.87
2019-02-27T11:51:28.476Z,29.03
2019-02-27T11:52:28.795Z,28.84
2019-02-27T11:53:28.322Z,29.40
2019-02-27T11:54:27.223Z,28.33
2019-02-27T11:55:27.205Z,28.82
2019-02-27T11:56:27.177Z,29.62
2019-02-27T11:57:30.535Z,29.35
2019-02-27T11:58:27.396Z,29.84
2019-02-27T11:59:27.857Z,29.43
2019-02-27T12:00:27.693Z,29.47
2019-02-27T12:01:27.262Z,29.78
2019-02-27T12:02:29.800Z,29.92
2019-02-27T12:03:28.786Z,29.59
2019-02-27T12:04:27.223Z,29.49
2019-02-27T12:05:30.753Z,29.53
2019-02-27T12:06:28.398Z,30.07
2019-02-27T12:07:27.780Z,30.87
2019-02-27T12:08:30.236Z,32.00
2019-02-27T12:09:27.333Z,32.85
2019-02-27T12:10:27.060Z,33.58
2019-02-27T12:11:28.413Z,32.84
2019-02-27T12:12:27.217Z,32.89
2019-02-27T12:13:27.938Z,32.00
2019-02-27T12:14:27.839Z,31.04
2019-02-27T12:15:27.638Z,30.31
2019-02-27T12:16:27.463Z,29.90
2019-02-27T12:17:27.619Z,29.34
2019-02-27T12:18:28.597Z,29.37
2019-02-27T12:19:28.915Z,29.96
2019-02-27T12:20:27.792Z,30.65
2019-02-27T12:21:28.023Z,31.77
2019-02-27T12:22:27.031Z,32.29
2019-02-27T12:23:27.611Z,33.08
2019-02-27T12:24:27.257Z,32.32
2019-02-27T12:25:30.002Z,31.39
2019-02-27T12:26:26.942Z,30.89
2019-02-27T12:27:47.817Z,30.80
2019-02-27T12:28:27.881Z,31.65
2019-02-27T12:29:27.334Z,32.61
2019-02-27T12:30:27.760Z,32.55
2019-02-27T12:31:26.947Z,32.58
2019-02-27T12:32:27.315Z,32.33
2019-02-27T12:33:29.287Z,31.05
2019-02-27T12:34:26.811Z,29.92
2019-02-27T12:35:27.312Z,29.44
2019-02-27T12:36:26.802Z,29.00
2019-02-27T12:37:28.400Z,28.58
2019-02-27T12:38:27.011Z,28.73
2019-02-27T12:39:27.618Z,29.65
2019-02-27T12:40:26.801Z,30.21
2019-02-27T12:41:26.936Z,30.15
2019-02-27T12:42:36.778Z,29.52
2019-02-27T12:43:27.811Z,30.03
2019-02-27T12:44:26.927Z,30.27
2019-02-27T12:45:27.793Z,31.39
2019-02-27T12:46:26.700Z,32.55
2019-02-27T12:47:26.747Z,32.15
2019-02-27T12:48:27.435Z,30.75
2019-02-27T12:49:26.675Z,30.96
2019-02-27T12:50:30.871Z,30.00
2019-02-27T12:51:26.724Z,29.52
2019-02-27T12:52:26.649Z,30.76
2019-02-27T12:53:26.792Z,30.56
2019-02-27T12:54:27.412Z,30.29
2019-02-27T12:55:26.873Z,29.72
2019-02-27T12:56:26.832Z,29.38
2019-02-27T12:57:27.009Z,26.67
2019-02-27T12:58:27.062Z,24.53
2019-02-27T12:59:26.971Z,23.42
2019-02-27T13:00:26.737Z,22.72
2019-02-27T13:01:26.605Z,22.13
2019-02-27T13:02:35.427Z,21.71
2019-02-27T13:03:27.709Z,21.32
2019-02-27T13:04:26.638Z,21.01
2019-02-27T13:05:27.409Z,20.87
2019-02-27T13:06:26.641Z,20.58
2019-02-27T13:07:27.783Z,20.27
2019-02-27T13:09:36.351Z,19.47
2019-02-27T13:10:36.302Z,19.31
2019-02-27T13:11:39.097Z,19.21
2019-02-27T13:12:37.267Z,19.13